62NC weather

Hickory Hill Airport
Havelock, North Carolina, United States

Public forecast

Using degrees Fahrenheit for public forecast. Weather courtesy of forecast.io.

Closest aviation weather report (METAR) to Hickory Hill Airport

Closest report is Cherry Point MCAS /Cunningham Field/, 3.8 nm (7.1 km) SE. Retrieved 2019/10/16 10:01 UTC (28 minutes ago):

KNKT 161001Z 22003KT 5SM -RA BR SCT018 BKN046 OVC080 21/19 A2988 RMK P0000 T02110194

Closest aviation forecast (TAF) to Hickory Hill Airport

Forecast is more than 12 hours old.

Closest forecast is Cherry Point MCAS /Cunningham Field/, 3.8 nm (7.1 km) SE. Retrieved 2014/07/10 21:49 UTC (5 years ago):

TAF COR KNKT 102100Z 1021/1121 21012G18KT 9999 VCTS SCT015 BKN025CB OVC040 QNH2999INS TEMPO 1021/1101 20020G30KT 2800 TSRA BKN015 OVC025CB FM110200 20010KT 9999 VCTS SCT015 BKN025CB BKN040 QNH3000INS TEMPO 1103/1106 6000 SHRA BKN015 BKN030 BKN050 FM111400 21012KT 9999 VCTS SCT015 BKN025CB OVC040 QNH3005INS TEMPO 1117/1119 20015G22KT 2800 TSRA BKN015 BKN025CB OVC040 T24/1109Z T31/1118Z COR 2340